Time;durP1;ratioP1;P1;durP2;ratioP2;P2;SDS_P1;SDS_P2;PMS_P1;PMS_P2;Temp;Humidity;BMP_temperature;BMP_pressure;BME280_temperature;BME280_humidity;BME280_pressure;Samples;Min_cycle;Max_cycle;Signal;HPM_P1;HPM_P2
2023/03/30 00:00:48;;;;;;;23.73;16.08;;;;;;;8.77;83.47;100755.69;7392623;19;20006;-58
2023/03/30 00:03:17;;;;;;;21.98;15.77;;;;;;;8.78;83.64;100753.88;7390605;19;20466;-58
2023/03/30 00:05:45;;;;;;;26.23;16.55;;;;;;;8.77;83.71;100755.69;7390003;19;19998;-57
2023/03/30 00:08:13;;;;;;;24.50;17.33;;;;;;;8.73;83.75;100741.00;7390408;19;20032;-58
2023/03/30 00:10:39;;;;;;;25.17;16.60;;;;;;;8.71;83.67;100737.59;7391773;19;20002;-58
2023/03/30 00:13:06;;;;;;;24.35;16.80;;;;;;;8.75;83.59;100728.47;7388918;19;20018;-58
2023/03/30 00:15:32;;;;;;;23.17;16.55;;;;;;;8.67;83.79;100714.94;7391050;19;20070;-58
2023/03/30 00:17:58;;;;;;;24.58;17.23;;;;;;;8.62;84.28;100717.94;7391725;19;20020;-58
2023/03/30 00:20:23;;;;;;;25.73;16.75;;;;;;;8.57;84.26;100712.16;7391568;19;20448;-58
2023/03/30 00:22:49;;;;;;;26.63;17.23;;;;;;;8.64;84.16;100715.19;7389180;19;20003;-58
2023/03/30 00:25:17;;;;;;;22.60;16.00;;;;;;;8.65;84.02;100719.53;7389733;19;19998;-58
2023/03/30 00:27:43;;;;;;;22.30;15.68;;;;;;;8.69;83.91;100713.06;7391929;19;20002;-58
2023/03/30 00:30:14;;;;;;;22.35;16.65;;;;;;;8.72;83.82;100713.66;7390814;19;20026;-57
2023/03/30 00:32:40;;;;;;;23.75;15.80;;;;;;;8.76;83.51;100703.69;7387671;19;20030;-57
2023/03/30 00:35:06;;;;;;;24.98;16.13;;;;;;;8.73;83.57;100714.50;7390268;19;20006;-57
2023/03/30 00:37:36;;;;;;;22.85;15.65;;;;;;;8.71;83.71;100704.00;7391322;19;20317;-58
2023/03/30 00:40:06;;;;;;;23.02;15.60;;;;;;;8.73;83.63;100706.56;7390623;19;20003;-58
2023/03/30 00:42:36;;;;;;;26.30;16.65;;;;;;;8.76;83.63;100701.03;7394416;19;20032;-58
2023/03/30 00:45:25;;;;;;;23.45;15.50;;;;;;;8.69;83.71;100692.69;7398307;19;20009;-58
2023/03/30 00:48:14;;;;;;;22.70;16.75;;;;;;;8.66;83.89;100689.44;7396574;19;20014;-59
2023/03/30 00:50:50;;;;;;;22.23;15.23;;;;;;;8.63;83.88;100687.84;7398779;19;19999;-59
2023/03/30 00:53:19;;;;;;;23.75;16.02;;;;;;;8.61;83.85;100673.06;7395335;19;20488;-59
2023/03/30 00:55:48;;;;;;;24.38;15.93;;;;;;;8.61;84.05;100671.25;7394725;19;20015;-59
2023/03/30 00:58:15;;;;;;;21.88;15.02;;;;;;;8.61;84.03;100665.97;7394841;19;20400;-59
2023/03/30 01:00:42;;;;;;;25.40;16.90;;;;;;;8.61;83.85;100662.47;7394878;19;20352;-59
2023/03/30 01:03:18;;;;;;;23.85;16.02;;;;;;;8.53;84.04;100667.47;7394722;19;20011;-59
2023/03/30 01:05:45;;;;;;;20.92;14.98;;;;;;;8.54;84.01;100655.94;7397148;19;20007;-59
2023/03/30 01:08:12;;;;;;;22.08;15.38;;;;;;;8.54;84.20;100646.19;7397539;19;19998;-58
2023/03/30 01:10:38;;;;;;;22.75;15.43;;;;;;;8.51;84.13;100643.78;7396983;19;20348;-59
2023/03/30 01:13:05;;;;;;;23.80;14.70;;;;;;;8.56;83.98;100640.78;7393996;19;20014;-58
2023/03/30 01:15:36;;;;;;;26.63;15.98;;;;;;;8.59;83.79;100632.59;7396891;19;20016;-62
2023/03/30 01:18:14;;;;;;;21.52;15.48;;;;;;;8.55;84.00;100626.69;7397245;19;20026;-59
2023/03/30 01:20:52;;;;;;;23.08;14.98;;;;;;;8.57;83.76;100618.63;7396896;19;20017;-59
2023/03/30 01:23:45;;;;;;;22.92;15.38;;;;;;;8.56;83.82;100612.47;7394621;19;20431;-59
2023/03/30 01:26:36;;;;;;;20.80;14.85;;;;;;;8.55;83.63;100594.06;7395642;19;20019;-60
2023/03/30 01:29:33;;;;;;;22.30;14.43;;;;;;;8.51;83.72;100587.34;7396046;19;20193;-59
2023/03/30 01:32:26;;;;;;;21.00;13.80;;;;;;;8.43;83.72;100587.91;7391946;19;20007;-60
2023/03/30 01:34:58;;;;;;;19.80;13.85;;;;;;;8.37;83.90;100575.97;7395892;19;20477;-58
2023/03/30 01:37:33;;;;;;;18.45;13.45;;;;;;;8.42;84.04;100578.28;7394171;19;20621;-58
2023/03/30 01:40:12;;;;;;;21.25;14.18;;;;;;;8.42;84.12;100568.53;7393554;19;20002;-58
2023/03/30 01:42:51;;;;;;;22.98;14.57;;;;;;;8.38;84.19;100571.50;7395388;19;20028;-58
2023/03/30 01:45:29;;;;;;;20.60;14.00;;;;;;;8.41;83.94;100566.00;7394003;19;20002;-58
2023/03/30 01:48:09;;;;;;;19.52;13.20;;;;;;;8.48;83.63;100560.13;7396200;19;19999;-58
2023/03/30 01:50:52;;;;;;;21.30;13.57;;;;;;;8.45;83.55;100556.84;7395902;19;20156;-57
2023/03/30 01:53:24;;;;;;;19.27;13.30;;;;;;;8.49;83.22;100556.53;7390232;19;20016;-57
2023/03/30 01:56:16;;;;;;;20.13;12.90;;;;;;;8.49;83.48;100547.72;7395134;19;20006;-57
2023/03/30 01:58:53;;;;;;;19.55;12.52;;;;;;;8.49;83.23;100532.69;7395928;19;20030;-57
2023/03/30 02:01:19;;;;;;;18.88;12.35;;;;;;;8.53;83.13;100522.72;7396518;19;20017;-58
2023/03/30 02:03:51;;;;;;;19.30;12.13;;;;;;;8.56;83.20;100522.47;7392547;19;20612;-57
2023/03/30 02:06:24;;;;;;;20.48;11.98;;;;;;;8.55;83.15;100517.28;7395433;19;20013;-57
2023/03/30 02:08:53;;;;;;;17.00;11.43;;;;;;;8.59;83.01;100521.38;7395894;19;20022;-57
2023/03/30 02:11:24;;;;;;;17.35;11.80;;;;;;;8.60;82.89;100518.59;7395540;19;20002;-57
2023/03/30 02:13:52;;;;;;;16.70;11.70;;;;;;;8.63;82.94;100509.59;7391971;19;20510;-57
2023/03/30 02:16:53;;;;;;;18.83;11.13;;;;;;;8.67;83.00;100503.09;7395447;19;20010;-58
2023/03/30 02:19:18;;;;;;;17.23;10.57;;;;;;;8.72;82.46;100504.44;7393889;19;20011;-57
2023/03/30 02:21:46;;;;;;;17.35;11.30;;;;;;;8.71;82.51;100501.88;7394518;19;19999;-59
2023/03/30 02:24:23;;;;;;;17.17;11.23;;;;;;;8.69;82.78;100494.06;7393038;19;19995;-58
2023/03/30 02:26:51;;;;;;;17.67;10.93;;;;;;;8.71;82.34;100491.28;7394568;19;20181;-58
2023/03/30 02:29:18;;;;;;;17.75;10.20;;;;;;;8.72;82.30;100480.59;7395490;19;19999;-58
2023/03/30 02:31:47;;;;;;;16.90;10.25;;;;;;;8.73;82.21;100470.84;7393782;19;19998;-58
2023/03/30 02:34:57;;;;;;;15.07;10.43;;;;;;;8.70;82.52;100471.06;7393321;19;20002;-59
2023/03/30 02:37:32;;;;;;;16.10;9.70;;;;;;;8.74;82.34;100468.06;7393077;19;20022;-58
2023/03/30 02:40:12;;;;;;;17.73;10.25;;;;;;;8.78;82.26;100465.19;7394931;19;19999;-58
2023/03/30 02:42:46;;;;;;;16.98;9.80;;;;;;;8.79;81.88;100464.19;7392667;19;20007;-58
2023/03/30 02:45:34;;;;;;;17.85;9.90;;;;;;;8.78;81.93;100457.22;7394205;19;19990;-58
2023/03/30 02:48:17;;;;;;;14.77;9.13;;;;;;;8.78;82.09;100457.22;7392431;19;20010;-58
2023/03/30 02:50:53;;;;;;;16.65;9.65;;;;;;;8.80;81.70;100468.53;7395246;19;20006;-58
2023/03/30 02:53:32;;;;;;;14.95;9.57;;;;;;;8.80;81.77;100464.09;7391437;19;19999;-58
2023/03/30 02:56:23;;;;;;;15.88;9.23;;;;;;;8.84;81.69;100460.25;7394156;19;20018;-58
2023/03/30 02:58:58;;;;;;;15.63;9.30;;;;;;;8.79;81.56;100454.44;7391914;19;19991;-58
2023/03/30 03:01:56;;;;;;;16.08;9.23;;;;;;;8.78;81.65;100455.41;7394099;19;20082;-58
2023/03/30 03:04:24;;;;;;;16.33;8.95;;;;;;;8.77;81.54;100458.19;7392144;19;20009;-58
2023/03/30 03:06:51;;;;;;;14.38;8.68;;;;;;;8.75;81.91;100458.31;7394221;19;20005;-58
2023/03/30 03:09:19;;;;;;;16.08;9.55;;;;;;;8.70;81.89;100452.53;7392896;19;20466;-58
2023/03/30 03:11:45;;;;;;;15.25;9.13;;;;;;;8.68;81.86;100454.44;7391352;19;19995;-58
2023/03/30 03:14:11;;;;;;;14.75;9.27;;;;;;;8.65;81.88;100446.78;7388721;19;20007;-57
2023/03/30 03:16:37;;;;;;;15.80;9.02;;;;;;;8.60;81.90;100446.28;7393366;19;20034;-59
2023/03/30 03:19:03;;;;;;;15.63;8.80;;;;;;;8.62;82.14;100454.97;7394092;19;20478;-58
2023/03/30 03:21:29;;;;;;;14.32;8.18;;;;;;;8.65;81.94;100449.44;7391837;19;20006;-58
2023/03/30 03:23:54;;;;;;;15.27;9.30;;;;;;;8.63;81.78;100436.28;7391238;19;20466;-59
2023/03/30 03:26:21;;;;;;;14.00;8.30;;;;;;;8.68;81.96;100438.56;7392024;19;19999;-58
2023/03/30 03:28:53;;;;;;;15.73;8.38;;;;;;;8.71;81.76;100444.47;7390336;19;20522;-58
2023/03/30 03:31:18;;;;;;;17.75;8.48;;;;;;;8.72;81.47;100432.94;7392379;19;20022;-58
2023/03/30 03:33:44;;;;;;;15.13;8.68;;;;;;;8.71;81.51;100435.69;7387132;19;20025;-58
2023/03/30 03:36:10;;;;;;;14.23;8.07;;;;;;;8.74;81.55;100422.19;7391157;19;20007;-58
2023/03/30 03:38:37;;;;;;;14.55;8.55;;;;;;;8.74;81.62;100424.84;7389408;19;20031;-58
2023/03/30 03:41:03;;;;;;;12.23;8.10;;;;;;;8.78;81.35;100428.09;7390442;19;20002;-58
2023/03/30 03:43:29;;;;;;;15.05;8.02;;;;;;;8.79;81.51;100427.13;7388718;19;20013;-58
2023/03/30 03:45:55;;;;;;;13.68;7.65;;;;;;;8.83;81.15;100420.59;7391534;19;20070;-58
2023/03/30 03:48:22;;;;;;;12.98;7.28;;;;;;;8.83;81.23;100413.50;7392400;19;20007;-58
2023/03/30 03:50:51;;;;;;;12.40;7.10;;;;;;;8.85;81.08;100410.75;7392052;19;20367;-58
2023/03/30 03:53:16;;;;;;;15.48;7.05;;;;;;;8.87;81.07;100416.75;7390410;19;20010;-58
2023/03/30 03:55:43;;;;;;;13.25;6.68;;;;;;;8.95;80.60;100404.59;7392172;19;20011;-56
2023/03/30 03:58:09;;;;;;;11.40;6.45;;;;;;;9.02;80.57;100412.03;7392826;19;20001;-56
2023/03/30 04:00:34;;;;;;;13.98;6.50;;;;;;;9.03;80.45;100403.09;7393188;19;20037;-56
2023/03/30 04:03:00;;;;;;;12.65;6.75;;;;;;;9.06;80.38;100410.81;7390451;19;20002;-56
2023/03/30 04:05:26;;;;;;;12.50;6.20;;;;;;;9.09;80.20;100405.25;7391093;19;20007;-56
2023/03/30 04:07:55;;;;;;;13.02;6.97;;;;;;;9.07;80.38;100396.63;7391449;19;20007;-57
2023/03/30 04:10:22;;;;;;;13.70;6.75;;;;;;;9.07;80.30;100397.44;7392207;19;20003;-57
2023/03/30 04:12:47;;;;;;;12.82;6.20;;;;;;;9.11;80.12;100401.53;7389185;19;20347;-57
2023/03/30 04:15:13;;;;;;;14.18;6.10;;;;;;;9.10;80.19;100394.53;7390178;19;20015;-57
2023/03/30 04:17:38;;;;;;;12.13;6.13;;;;;;;9.15;80.35;100402.13;7390586;19;19990;-57
2023/03/30 04:20:10;;;;;;;10.73;5.30;;;;;;;9.18;80.17;100396.56;7391547;19;20463;-57
2023/03/30 04:22:40;;;;;;;12.55;5.68;;;;;;;9.19;80.36;100387.66;7390814;19;20460;-58
2023/03/30 04:25:10;;;;;;;14.02;5.88;;;;;;;9.22;80.46;100384.75;7390359;19;20032;-58
2023/03/30 04:27:36;;;;;;;17.02;5.82;;;;;;;9.22;80.65;100367.03;7392126;19;20002;-58
2023/03/30 04:30:04;;;;;;;11.82;5.50;;;;;;;9.27;80.73;100360.50;7391777;19;20082;-59
2023/03/30 04:32:33;;;;;;;12.82;5.00;;;;;;;9.29;80.94;100362.03;7389346;19;20014;-59
2023/03/30 04:35:00;;;;;;;12.20;5.55;;;;;;;9.30;80.99;100366.41;7391095;19;20002;-59
2023/03/30 04:37:29;;;;;;;13.48;5.45;;;;;;;9.30;81.07;100373.53;7390582;19;20019;-58
2023/03/30 04:40:06;;;;;;;10.02;5.07;;;;;;;9.33;80.90;100370.59;7391062;19;20002;-58
2023/03/30 04:42:36;;;;;;;13.52;5.22;;;;;;;9.35;80.80;100368.66;7389913;19;19998;-58
2023/03/30 04:45:04;;;;;;;13.90;5.38;;;;;;;9.38;80.77;100368.41;7390361;19;20003;-58
2023/03/30 04:47:30;;;;;;;12.00;5.13;;;;;;;9.41;80.53;100370.81;7389752;19;20022;-58
2023/03/30 04:49:55;;;;;;;12.77;5.25;;;;;;;9.42;80.44;100365.38;7390917;19;20006;-58
2023/03/30 04:52:21;;;;;;;9.07;4.60;;;;;;;9.44;80.21;100368.72;7381511;19;20007;-58
2023/03/30 04:54:46;;;;;;;10.38;4.80;;;;;;;9.45;80.00;100359.81;7387650;19;19999;-58
2023/03/30 04:57:13;;;;;;;11.82;4.60;;;;;;;9.47;80.05;100355.22;7390121;19;20068;-58
2023/03/30 04:59:43;;;;;;;15.60;5.10;;;;;;;9.45;79.91;100365.13;7390182;19;20003;-58
2023/03/30 05:02:10;;;;;;;9.90;4.80;;;;;;;9.46;79.87;100358.00;7388679;19;20017;-58
2023/03/30 05:04:36;;;;;;;11.52;5.03;;;;;;;9.45;79.55;100362.47;7386723;19;20610;-58
2023/03/30 05:07:03;;;;;;;12.05;4.78;;;;;;;9.49;79.06;100360.41;7391173;19;20007;-58
2023/03/30 05:09:29;;;;;;;10.70;4.50;;;;;;;9.51;79.04;100362.91;7388310;19;20032;-58
2023/03/30 05:11:54;;;;;;;12.90;4.78;;;;;;;9.51;78.91;100373.53;7388988;19;20002;-58
2023/03/30 05:14:20;;;;;;;9.65;4.57;;;;;;;9.55;78.56;100378.44;7385414;19;20013;-58
2023/03/30 05:16:46;;;;;;;12.20;4.55;;;;;;;9.57;78.47;100375.69;7389515;19;19994;-59
2023/03/30 05:19:11;;;;;;;11.50;4.15;;;;;;;9.58;78.53;100364.09;7388572;19;19990;-58
2023/03/30 05:21:37;;;;;;;12.07;4.75;;;;;;;9.60;78.16;100368.31;7387933;19;19999;-58
2023/03/30 05:24:03;;;;;;;10.20;4.47;;;;;;;9.64;78.09;100368.88;7387281;19;20009;-58
2023/03/30 05:26:29;;;;;;;9.98;3.83;;;;;;;9.70;77.60;100360.41;7389385;19;19998;-57
2023/03/30 05:28:54;;;;;;;9.40;4.38;;;;;;;9.70;77.67;100353.28;7399372;19;19994;-58
2023/03/30 05:31:20;;;;;;;8.95;4.20;;;;;;;9.71;77.54;100340.84;7396461;19;19994;-58
2023/03/30 05:33:45;;;;;;;11.32;4.45;;;;;;;9.73;77.41;100325.66;7393534;19;19995;-58
2023/03/30 05:36:12;;;;;;;9.63;4.53;;;;;;;9.74;77.25;100326.50;7395486;19;20002;-58
2023/03/30 05:38:37;;;;;;;10.50;3.92;;;;;;;9.75;77.06;100328.16;7396678;19;19999;-58
2023/03/30 05:41:03;;;;;;;9.95;4.55;;;;;;;9.77;76.86;100329.72;7396112;19;20342;-58
2023/03/30 05:43:30;;;;;;;10.02;4.25;;;;;;;9.80;76.89;100318.03;7394758;19;20015;-60
2023/03/30 05:45:56;;;;;;;12.32;4.60;;;;;;;9.84;76.66;100325.63;7393639;19;20069;-58
2023/03/30 05:48:28;;;;;;;8.98;3.70;;;;;;;9.89;76.23;100331.34;7396624;19;19994;-58
2023/03/30 05:50:54;;;;;;;10.07;3.85;;;;;;;9.92;76.06;100328.44;7397060;19;20014;-58
2023/03/30 05:53:20;;;;;;;8.55;3.55;;;;;;;9.97;75.71;100333.34;7393008;19;20432;-59
2023/03/30 05:55:48;;;;;;;10.90;3.70;;;;;;;10.00;75.52;100329.59;7394851;19;20054;-59
2023/03/30 05:58:15;;;;;;;10.35;4.00;;;;;;;10.01;75.51;100326.78;7395833;19;19998;-58
2023/03/30 06:00:42;;;;;;;9.57;4.25;;;;;;;10.02;75.35;100341.78;7395759;19;20003;-59
2023/03/30 06:03:09;;;;;;;9.40;4.05;;;;;;;10.02;75.50;100346.22;7393876;19;20009;-58
2023/03/30 06:05:38;;;;;;;9.48;3.65;;;;;;;10.01;75.57;100350.69;7395804;19;20002;-58
2023/03/30 06:08:07;;;;;;;9.95;3.70;;;;;;;10.02;75.40;100336.47;7393941;19;20004;-58
2023/03/30 06:10:34;;;;;;;11.55;3.78;;;;;;;10.04;75.16;100331.84;7395118;19;20550;-58
2023/03/30 06:13:00;;;;;;;8.20;3.47;;;;;;;10.06;75.22;100316.66;7392392;19;19995;-58
2023/03/30 06:15:26;;;;;;;11.50;3.28;;;;;;;10.08;74.93;100321.81;7394773;19;19994;-58
2023/03/30 06:17:51;;;;;;;13.00;4.00;;;;;;;10.11;74.83;100322.38;7393385;19;20018;-59
2023/03/30 06:20:25;;;;;;;11.90;3.65;;;;;;;10.14;74.93;100324.78;7395411;19;20455;-59
2023/03/30 06:22:51;;;;;;;9.70;3.50;;;;;;;10.17;74.63;100332.47;7392533;19;20017;-59
2023/03/30 06:25:22;;;;;;;7.75;3.30;;;;;;;10.22;74.88;100333.88;7394761;19;20295;-58
2023/03/30 06:27:47;;;;;;;9.13;3.80;;;;;;;10.29;74.23;100335.88;7394374;19;20010;-58
2023/03/30 06:30:14;;;;;;;8.98;4.03;;;;;;;10.33;74.28;100344.41;7394850;19;20003;-58
2023/03/30 06:32:40;;;;;;;12.05;3.40;;;;;;;10.32;74.34;100348.03;7393320;19;20007;-59
2023/03/30 06:35:06;;;;;;;12.32;3.58;;;;;;;10.28;74.80;100344.78;7394931;19;20010;-59
2023/03/30 06:37:33;;;;;;;9.85;3.40;;;;;;;10.27;75.13;100347.59;7395486;19;20455;-58
2023/03/30 06:39:59;;;;;;;10.32;3.60;;;;;;;10.26;75.45;100345.91;7393054;19;19998;-58
2023/03/30 06:42:26;;;;;;;13.00;3.83;;;;;;;10.34;75.27;100348.75;7390720;19;19991;-59
2023/03/30 06:44:52;;;;;;;11.52;3.90;;;;;;;10.45;74.83;100335.34;7394221;19;20023;-59
2023/03/30 06:47:18;;;;;;;10.18;3.55;;;;;;;10.57;74.22;100344.06;7392580;19;20006;-59
2023/03/30 06:49:43;;;;;;;9.25;3.58;;;;;;;10.62;74.07;100334.69;7392221;19;20010;-59
2023/03/30 06:52:10;;;;;;;7.38;3.65;;;;;;;10.65;74.23;100333.59;7393256;19;20457;-59
2023/03/30 06:54:35;;;;;;;8.55;3.00;;;;;;;10.70;73.75;100344.63;7391940;19;20458;-59
2023/03/30 06:57:01;;;;;;;9.70;3.92;;;;;;;10.74;73.87;100337.22;7393548;19;19991;-59
2023/03/30 06:59:27;;;;;;;8.93;3.33;;;;;;;10.79;73.51;100333.19;7393757;19;20008;-59
2023/03/30 07:01:52;;;;;;;14.07;4.07;;;;;;;10.79;73.60;100325.22;7392465;19;20446;-59
2023/03/30 07:04:18;;;;;;;8.40;3.55;;;;;;;10.77;73.80;100327.16;7391406;19;19995;-59
2023/03/30 07:06:43;;;;;;;12.23;3.75;;;;;;;10.73;73.96;100332.91;7393797;19;19999;-59
2023/03/30 07:09:18;;;;;;;11.32;3.50;;;;;;;10.68;74.84;100339.47;7389150;19;20128;-59
2023/03/30 07:11:43;;;;;;;11.13;3.55;;;;;;;10.74;75.03;100332.75;7392701;19;19999;-58
2023/03/30 07:14:15;;;;;;;9.90;3.60;;;;;;;10.75;74.89;100323.00;7391399;19;20066;-59
2023/03/30 07:16:41;;;;;;;14.27;4.03;;;;;;;10.73;75.13;100325.75;7392187;19;20366;-59
2023/03/30 07:19:06;;;;;;;9.70;3.53;;;;;;;10.80;75.19;100329.56;7391077;19;19994;-59
2023/03/30 07:21:32;;;;;;;10.00;3.97;;;;;;;10.79;75.37;100335.84;7392456;19;19994;-60
2023/03/30 07:24:00;;;;;;;11.15;3.60;;;;;;;10.84;75.05;100333.59;7390088;19;20343;-58
2023/03/30 07:26:29;;;;;;;8.57;3.33;;;;;;;10.95;74.63;100337.97;7392819;19;20006;-57
2023/03/30 07:28:56;;;;;;;8.82;3.63;;;;;;;11.00;74.26;100335.72;7390731;19;20763;-59
2023/03/30 07:31:23;;;;;;;11.30;3.67;;;;;;;10.97;74.19;100340.47;7392175;19;20002;-59
2023/03/30 07:33:49;;;;;;;9.32;4.05;;;;;;;11.04;74.18;100341.59;7388602;19;20015;-58
2023/03/30 07:36:14;;;;;;;10.05;3.60;;;;;;;11.10;73.69;100343.72;7390754;19;20003;-59
2023/03/30 07:38:40;;;;;;;10.68;3.60;;;;;;;11.17;73.50;100332.38;7391844;19;19999;-58
2023/03/30 07:41:12;;;;;;;8.15;3.33;;;;;;;11.30;73.01;100332.13;7390861;19;20379;-59
2023/03/30 07:43:39;;;;;;;7.57;3.05;;;;;;;11.35;72.74;100340.50;7393891;19;20114;-58
2023/03/30 07:46:06;;;;;;;9.48;3.30;;;;;;;11.30;73.15;100341.91;7392697;19;20002;-58
2023/03/30 07:48:31;;;;;;;8.07;2.65;;;;;;;11.22;73.28;100334.59;7390158;19;19994;-58
2023/03/30 07:51:10;;;;;;;10.00;3.20;;;;;;;11.16;73.42;100336.03;7390602;19;19991;-58
2023/03/30 07:53:36;;;;;;;6.93;3.25;;;;;;;11.14;73.83;100329.16;7389891;19;20027;-57
2023/03/30 07:56:03;;;;;;;8.27;3.00;;;;;;;11.17;73.69;100327.06;7391957;19;20005;-58
2023/03/30 07:58:28;;;;;;;9.98;3.25;;;;;;;11.14;73.84;100332.66;7389764;19;19994;-59
2023/03/30 08:00:54;;;;;;;8.63;2.90;;;;;;;11.15;73.80;100328.16;7392416;19;19998;-59
2023/03/30 08:03:21;;;;;;;11.55;3.20;;;;;;;11.28;73.48;100331.44;7390641;19;20009;-58
2023/03/30 08:05:55;;;;;;;8.32;2.90;;;;;;;11.36;73.10;100322.75;7394247;19;19999;-58
2023/03/30 08:08:21;;;;;;;8.38;2.85;;;;;;;11.51;72.94;100323.16;7393984;19;19991;-58
2023/03/30 08:10:46;;;;;;;6.10;2.47;;;;;;;11.80;71.72;100333.72;7391217;19;19991;-58
2023/03/30 08:13:19;;;;;;;6.82;2.88;;;;;;;11.80;71.69;100329.22;7388129;19;19995;-60
2023/03/30 08:15:45;;;;;;;8.80;2.70;;;;;;;11.77;71.94;100336.66;7388941;19;20006;-59
2023/03/30 08:18:12;;;;;;;7.07;2.75;;;;;;;11.88;71.59;100342.66;7390403;19;20010;-59
2023/03/30 08:20:40;;;;;;;6.38;2.40;;;;;;;11.96;71.37;100339.25;7392479;19;20372;-59
2023/03/30 08:23:06;;;;;;;9.38;3.30;;;;;;;11.96;71.47;100341.09;7391085;19;20497;-59
2023/03/30 08:25:32;;;;;;;8.57;3.25;;;;;;;11.90;71.75;100345.19;7388890;19;20066;-59
2023/03/30 08:28:20;;;;;;;9.65;2.75;;;;;;;11.89;71.92;100354.16;7390437;19;20392;-59
2023/03/30 08:31:05;;;;;;;8.98;2.95;;;;;;;11.90;71.95;100342.53;7390276;19;20013;-59
2023/03/30 08:33:49;;;;;;;8.68;3.00;;;;;;;12.05;71.38;100341.06;7383733;19;20355;-59
2023/03/30 08:36:33;;;;;;;;;;;;;;;12.09;70.52;100333.63;7386339;19;20029;-59
2023/03/30 08:39:17;;;;;;;7.00;2.60;;;;;;;12.18;70.63;100348.72;7389194;19;19934;-59
2023/03/30 08:41:58;;;;;;;7.05;2.72;;;;;;;12.26;70.22;100340.00;7388556;19;20332;-59
2023/03/30 08:44:41;;;;;;;7.38;2.70;;;;;;;12.32;69.43;100332.25;7390361;19;20019;-59
2023/03/30 08:47:14;;;;;;;9.00;2.83;;;;;;;12.49;68.64;100341.31;7392480;19;20095;-60
2023/03/30 08:49:46;;;;;;;6.10;2.20;;;;;;;12.52;68.60;100345.50;7389805;19;20005;-60
2023/03/30 08:52:22;;;;;;;7.88;2.40;;;;;;;12.24;68.98;100337.50;7389225;19;19999;-60
2023/03/30 08:54:50;;;;;;;8.25;2.60;;;;;;;12.08;69.60;100326.59;7386984;19;20054;-60
2023/03/30 08:57:35;;;;;;;6.85;2.40;;;;;;;12.08;69.72;100335.47;7388579;19;20002;-58
2023/03/30 09:00:06;;;;;;;6.68;2.13;;;;;;;12.04;70.05;100333.22;7389944;19;20068;-59
2023/03/30 09:02:43;;;;;;;7.45;2.40;;;;;;;12.01;70.43;100320.22;7388519;19;20007;-59
2023/03/30 09:05:30;;;;;;;9.40;2.60;;;;;;;11.98;70.21;100337.31;7395191;19;19998;-59
2023/03/30 09:08:18;;;;;;;10.38;2.78;;;;;;;11.99;70.10;100328.31;7393166;19;19998;-59
2023/03/30 09:10:50;;;;;;;7.05;2.10;;;;;;;12.04;70.16;100323.44;7395743;19;20002;-59
2023/03/30 09:13:19;;;;;;;8.50;2.50;;;;;;;12.06;70.29;100334.75;7393747;19;20027;-59
2023/03/30 09:15:52;;;;;;;8.93;2.22;;;;;;;12.11;68.97;100334.31;7395548;19;20016;-60
2023/03/30 09:18:36;;;;;;;8.73;2.22;;;;;;;12.20;66.72;100328.13;7397631;19;20022;-59
2023/03/30 09:21:04;;;;;;;8.52;2.60;;;;;;;12.39;66.73;100335.19;7394074;19;19995;-59
2023/03/30 09:23:31;;;;;;;9.43;2.30;;;;;;;12.73;65.45;100316.78;7394812;19;20029;-59
2023/03/30 09:26:23;;;;;;;7.28;2.03;;;;;;;12.81;64.35;100324.84;7398021;19;20463;-59
2023/03/30 09:28:59;;;;;;;8.70;2.33;;;;;;;12.65;63.80;100327.31;7395606;19;20007;-60
2023/03/30 09:31:40;;;;;;;6.07;2.03;;;;;;;12.70;62.97;100330.41;7394876;19;19998;-60
2023/03/30 09:34:14;;;;;;;8.10;1.98;;;;;;;12.73;63.28;100342.56;7391242;19;20471;-60
2023/03/30 09:37:01;;;;;;;9.35;2.20;;;;;;;12.76;63.62;100326.28;7395807;19;20007;-59
2023/03/30 09:39:28;;;;;;;7.57;2.17;;;;;;;12.75;63.90;100333.44;7394253;19;20040;-60
2023/03/30 09:42:06;;;;;;;7.63;2.05;;;;;;;12.81;63.50;100335.53;7395517;19;20002;-61
2023/03/30 09:44:40;;;;;;;10.82;2.05;;;;;;;12.99;62.48;100342.69;7397306;19;20003;-60
2023/03/30 09:47:21;;;;;;;12.57;2.58;;;;;;;12.95;62.04;100335.97;7400738;19;20003;-60
2023/03/30 09:49:47;;;;;;;7.15;1.75;;;;;;;13.13;61.26;100326.16;7393813;19;20094;-60
2023/03/30 09:52:23;;;;;;;12.52;2.40;;;;;;;13.24;59.69;100333.91;7393154;19;20078;-59
2023/03/30 09:54:48;;;;;;;9.13;1.80;;;;;;;13.13;60.93;100344.81;7394679;19;20026;-59
2023/03/30 09:57:28;;;;;;;6.65;1.80;;;;;;;12.98;60.72;100339.19;7394468;19;20471;-60
2023/03/30 09:59:55;;;;;;;11.88;1.88;;;;;;;12.94;61.33;100337.81;7395731;19;20356;-59
2023/03/30 10:02:23;;;;;;;7.93;1.63;;;;;;;13.12;60.45;100345.81;7391606;19;20007;-59
2023/03/30 10:04:52;;;;;;;8.90;2.00;;;;;;;13.38;59.34;100335.22;7393271;19;20625;-60
2023/03/30 10:07:47;;;;;;;10.43;2.00;;;;;;;13.65;58.27;100328.06;7394772;19;20006;-59
2023/03/30 10:10:26;;;;;;;9.98;3.08;;;;;;;13.58;57.88;100310.00;7394516;19;20353;-60
2023/03/30 10:13:48;;;;;;;9.23;2.47;;;;;;;13.45;57.99;100324.75;7390842;19;20066;-60
2023/03/30 10:16:29;;;;;;;6.63;2.20;;;;;;;13.30;59.04;100335.13;7392675;19;20030;-60
2023/03/30 10:18:59;;;;;;;11.07;2.10;;;;;;;13.22;60.59;100333.22;7393561;19;20047;-60
2023/03/30 10:21:29;;;;;;;8.30;1.88;;;;;;;13.09;60.73;100340.78;7395279;19;20088;-60
2023/03/30 10:24:28;;;;;;;8.63;1.80;;;;;;;12.86;59.26;100343.06;7393926;19;20002;-60
2023/03/30 10:27:03;;;;;;;7.75;2.28;;;;;;;12.82;59.94;100344.34;7393203;19;20006;-59
2023/03/30 10:29:29;;;;;;;7.68;2.30;;;;;;;12.83;59.91;100332.69;7394487;19;20002;-61
2023/03/30 10:32:00;;;;;;;9.63;2.10;;;;;;;12.86;60.77;100353.72;7392804;19;20009;-59
2023/03/30 10:34:39;;;;;;;11.57;2.08;;;;;;;12.82;62.22;100347.84;7392270;19;20022;-59
2023/03/30 10:37:11;;;;;;;9.90;2.40;;;;;;;12.82;63.43;100363.84;7392382;19;20005;-58
2023/03/30 10:39:39;;;;;;;9.65;2.10;;;;;;;12.57;65.24;100381.38;7396356;19;20025;-58
2023/03/30 10:42:08;;;;;;;11.55;2.33;;;;;;;12.37;65.93;100382.44;7397183;19;20007;-59
2023/03/30 10:44:40;;;;;;;9.85;2.38;;;;;;;12.30;66.39;100398.16;7392425;19;20010;-59
2023/03/30 10:47:24;;;;;;;9.30;2.10;;;;;;;12.36;66.34;100378.94;7394878;19;19999;-58
2023/03/30 10:50:02;;;;;;;8.48;2.00;;;;;;;12.46;65.78;100380.69;7396272;19;20010;-59
2023/03/30 10:52:42;;;;;;;10.73;2.75;;;;;;;12.62;64.94;100384.44;7394876;19;20016;-59
2023/03/30 10:55:11;;;;;;;9.02;1.80;;;;;;;12.80;63.79;100379.13;7390508;19;20005;-59
2023/03/30 10:57:50;;;;;;;7.57;1.90;;;;;;;12.82;63.41;100392.34;7391924;19;20002;-59
2023/03/30 11:00:32;;;;;;;9.95;2.13;;;;;;;12.87;62.89;100424.72;7393350;19;19998;-59
2023/03/30 11:03:15;;;;;;;10.00;1.60;;;;;;;12.80;61.65;100397.81;7390388;19;20006;-62
2023/03/30 11:05:46;;;;;;;9.07;1.58;;;;;;;12.88;61.08;100394.38;7393775;19;20028;-59
2023/03/30 11:08:25;;;;;;;9.15;1.80;;;;;;;12.98;60.94;100394.34;7394734;19;20013;-59
2023/03/30 11:10:57;;;;;;;11.32;2.28;;;;;;;12.76;60.30;100411.59;7394201;19;20005;-59
2023/03/30 11:13:34;;;;;;;11.73;2.25;;;;;;;12.62;60.32;100392.44;7389335;19;19990;-59
2023/03/30 11:16:06;;;;;;;11.55;2.25;;;;;;;12.52;59.42;100409.47;7390196;19;20074;-58
2023/03/30 11:18:41;;;;;;;10.60;2.60;;;;;;;12.54;59.60;100410.16;7393619;19;20482;-59
2023/03/30 11:21:16;;;;;;;13.05;2.17;;;;;;;12.60;59.95;100401.56;7390546;19;20002;-59
2023/03/30 11:23:51;;;;;;;13.50;2.40;;;;;;;12.60;60.62;100406.91;7390319;19;20011;-59
2023/03/30 11:26:31;;;;;;;12.52;2.35;;;;;;;12.96;60.28;100402.50;7388675;19;20034;-59
2023/03/30 11:29:12;;;;;;;10.73;2.47;;;;;;;13.13;58.72;100392.00;7392893;19;20002;-59
2023/03/30 11:31:58;;;;;;;11.90;2.72;;;;;;;13.19;58.67;100394.06;7391107;19;19999;-59
2023/03/30 11:34:58;;;;;;;13.00;2.53;;;;;;;13.15;59.07;100400.66;7389554;19;20003;-59
2023/03/30 11:37:48;;;;;;;12.32;2.45;;;;;;;12.75;59.21;100410.75;7392049;19;20030;-58
2023/03/30 11:40:17;;;;;;;15.30;2.90;;;;;;;12.48;60.27;100397.38;7389798;19;20467;-58
2023/03/30 11:42:46;;;;;;;13.38;2.40;;;;;;;12.29;59.96;100414.28;7388469;19;20572;-58